createdAt,value
2023-03-10T00:00:36.911Z,6.70
2023-03-10T00:03:04.302Z,6.87
2023-03-10T00:05:31.228Z,6.36
2023-03-10T00:07:58.108Z,6.32
2023-03-10T00:10:24.966Z,6.44
2023-03-10T00:12:51.622Z,6.83
2023-03-10T00:15:18.609Z,6.67
2023-03-10T00:17:45.550Z,6.34
2023-03-10T00:20:13.151Z,6.07
2023-03-10T00:22:41.949Z,5.69
2023-03-10T00:25:10.411Z,5.81
2023-03-10T00:27:37.404Z,6.47
2023-03-10T00:30:05.102Z,6.30
2023-03-10T00:32:32.071Z,5.55
2023-03-10T00:34:58.948Z,5.90
2023-03-10T00:37:25.845Z,6.35
2023-03-10T00:39:53.551Z,6.58
2023-03-10T00:42:20.687Z,6.28
2023-03-10T00:44:47.638Z,5.73
2023-03-10T00:47:14.626Z,5.43
2023-03-10T00:49:41.624Z,5.87
2023-03-10T00:52:08.516Z,5.83
2023-03-10T00:54:35.444Z,5.61
2023-03-10T00:57:02.451Z,5.76
2023-03-10T00:59:34.921Z,5.59
2023-03-10T01:02:07.483Z,5.66
2023-03-10T01:04:34.405Z,5.80
2023-03-10T01:07:01.355Z,6.10
2023-03-10T01:09:28.206Z,6.24
2023-03-10T01:11:54.842Z,6.11
2023-03-10T01:14:21.745Z,6.21
2023-03-10T01:16:48.596Z,6.60
2023-03-10T01:19:15.501Z,6.41
2023-03-10T01:21:42.461Z,6.15
2023-03-10T01:24:15.307Z,6.51
2023-03-10T01:26:42.180Z,6.15
2023-03-10T01:29:09.024Z,6.16
2023-03-10T01:31:35.754Z,6.54
2023-03-10T01:34:02.643Z,6.51
2023-03-10T01:36:29.457Z,6.75
2023-03-10T01:38:56.873Z,6.85
2023-03-10T01:41:23.811Z,7.09
2023-03-10T01:43:53.178Z,7.72
2023-03-10T01:46:39.903Z,8.02
2023-03-10T01:49:18.069Z,8.09
2023-03-10T01:51:52.180Z,7.62
2023-03-10T01:54:23.496Z,8.06
2023-03-10T01:56:51.343Z,7.63
2023-03-10T01:59:18.744Z,7.66
2023-03-10T02:01:46.086Z,7.87
2023-03-10T02:04:38.001Z,7.86
2023-03-10T02:07:06.763Z,7.66
2023-03-10T02:09:36.926Z,7.76
2023-03-10T02:12:05.193Z,7.20
2023-03-10T02:14:32.851Z,7.18
2023-03-10T02:17:00.000Z,6.98
2023-03-10T02:19:56.433Z,6.47
2023-03-10T02:22:23.396Z,6.93
2023-03-10T02:24:52.468Z,6.74
2023-03-10T02:27:32.177Z,6.76
2023-03-10T02:30:19.521Z,6.41
2023-03-10T02:32:50.022Z,6.91
2023-03-10T02:35:17.225Z,7.17
2023-03-10T02:37:44.245Z,6.85
2023-03-10T02:40:32.571Z,7.20
2023-03-10T02:43:13.566Z,7.51
2023-03-10T02:45:42.056Z,7.95
2023-03-10T02:48:10.254Z,7.61
2023-03-10T02:50:39.104Z,7.83
2023-03-10T02:53:14.401Z,7.84
2023-03-10T02:55:41.362Z,7.47
2023-03-10T02:58:08.412Z,7.26
2023-03-10T03:00:39.733Z,7.51
2023-03-10T03:03:07.462Z,7.02
2023-03-10T03:05:34.354Z,6.54
2023-03-10T03:08:01.363Z,6.78
2023-03-10T03:10:28.705Z,6.83
2023-03-10T03:12:56.768Z,6.97
2023-03-10T03:15:24.292Z,6.56
2023-03-10T03:17:51.487Z,6.71
2023-03-10T03:20:18.461Z,6.95
2023-03-10T03:22:45.906Z,7.09
2023-03-10T03:25:15.999Z,6.93
2023-03-10T03:27:43.254Z,7.21
2023-03-10T03:30:15.746Z,7.11
2023-03-10T03:32:42.760Z,6.92
2023-03-10T03:35:16.011Z,7.16
2023-03-10T03:37:43.540Z,7.31
2023-03-10T03:40:15.120Z,7.48
2023-03-10T03:42:43.627Z,7.38
2023-03-10T03:45:12.176Z,7.74
2023-03-10T03:47:39.042Z,7.83
2023-03-10T03:50:07.545Z,7.74
2023-03-10T03:52:34.825Z,7.50
2023-03-10T03:55:01.743Z,7.81
2023-03-10T03:57:28.716Z,7.81
2023-03-10T03:59:55.611Z,7.63
2023-03-10T04:02:22.353Z,7.89
2023-03-10T04:04:49.335Z,7.87
2023-03-10T04:07:16.988Z,7.65
2023-03-10T04:09:43.931Z,7.83
2023-03-10T04:12:11.176Z,7.58
2023-03-10T04:14:38.563Z,7.53
2023-03-10T04:17:05.875Z,7.54
2023-03-10T04:19:32.778Z,7.63
2023-03-10T04:21:59.694Z,7.50
2023-03-10T04:24:26.628Z,6.97
2023-03-10T04:26:53.601Z,7.43
2023-03-10T04:29:24.508Z,7.45
2023-03-10T04:32:04.715Z,7.41
2023-03-10T04:34:32.736Z,7.34
2023-03-10T04:36:59.672Z,7.09
2023-03-10T04:39:26.642Z,7.09
2023-03-10T04:41:53.588Z,7.21
2023-03-10T04:44:30.531Z,7.04
2023-03-10T04:46:58.745Z,7.36
2023-03-10T04:49:25.653Z,7.35
2023-03-10T04:51:52.541Z,6.71
2023-03-10T04:54:19.569Z,6.58
2023-03-10T04:56:46.512Z,6.63
2023-03-10T04:59:13.428Z,6.27
2023-03-10T05:01:40.361Z,6.55
2023-03-10T05:04:07.394Z,6.73
2023-03-10T05:06:34.285Z,6.64
2023-03-10T05:09:04.248Z,6.61
2023-03-10T05:11:31.999Z,6.84
2023-03-10T05:13:58.880Z,6.40
2023-03-10T05:16:26.052Z,6.49
2023-03-10T05:18:53.491Z,6.76
2023-03-10T05:21:22.116Z,6.74
2023-03-10T05:23:49.710Z,7.03
2023-03-10T05:26:17.526Z,6.93
2023-03-10T05:28:44.608Z,6.84
2023-03-10T05:31:14.350Z,7.24
2023-03-10T05:33:41.900Z,7.39
2023-03-10T05:36:10.530Z,7.55
2023-03-10T05:38:38.010Z,7.50
2023-03-10T05:41:09.228Z,7.63
2023-03-10T05:43:37.236Z,7.69
2023-03-10T05:46:04.767Z,7.43
2023-03-10T05:48:32.052Z,7.19
2023-03-10T05:51:00.765Z,7.54
2023-03-10T05:53:28.185Z,8.20
2023-03-10T05:55:55.635Z,8.69
2023-03-10T05:58:23.641Z,9.25
2023-03-10T06:00:50.645Z,9.82
2023-03-10T06:03:18.435Z,10.08
2023-03-10T06:05:45.646Z,10.66
2023-03-10T06:08:12.525Z,11.14
2023-03-10T06:10:39.594Z,11.25
2023-03-10T06:13:06.679Z,11.44
2023-03-10T06:15:33.552Z,12.03
2023-03-10T06:18:00.425Z,12.44
2023-03-10T06:20:27.485Z,12.87
2023-03-10T06:22:54.388Z,13.26
2023-03-10T06:25:21.458Z,12.91
2023-03-10T06:27:48.533Z,12.85
2023-03-10T06:30:16.094Z,13.15
2023-03-10T06:32:43.374Z,13.90
2023-03-10T06:35:13.543Z,14.32
2023-03-10T06:37:40.684Z,14.41
2023-03-10T06:40:10.258Z,13.95
2023-03-10T06:42:37.174Z,13.30
2023-03-10T06:45:04.416Z,13.16
2023-03-10T06:47:31.347Z,12.84
2023-03-10T06:49:58.627Z,12.60
2023-03-10T06:52:25.998Z,12.85
2023-03-10T06:54:52.835Z,13.34
2023-03-10T06:57:21.045Z,13.29
2023-03-10T06:59:52.966Z,13.83
2023-03-10T07:02:28.780Z,14.21
2023-03-10T07:04:55.721Z,14.73
2023-03-10T07:07:22.625Z,14.74
2023-03-10T07:09:49.647Z,14.22
2023-03-10T07:12:16.464Z,14.10
2023-03-10T07:14:43.386Z,13.85
2023-03-10T07:17:10.308Z,14.00
2023-03-10T07:19:37.515Z,13.76
2023-03-10T07:22:04.429Z,13.80
2023-03-10T07:24:31.412Z,13.66
2023-03-10T07:27:02.120Z,13.93
2023-03-10T07:29:29.260Z,13.73
2023-03-10T07:31:56.799Z,13.75
2023-03-10T07:34:23.724Z,13.99
2023-03-10T07:36:50.607Z,13.90
2023-03-10T07:39:17.562Z,13.92
2023-03-10T07:41:44.465Z,14.40
2023-03-10T07:44:11.352Z,14.80
2023-03-10T07:46:38.277Z,15.05
2023-03-10T07:49:05.259Z,15.55
2023-03-10T07:51:32.466Z,16.13
2023-03-10T07:53:59.494Z,16.20
2023-03-10T07:56:26.394Z,16.20
2023-03-10T07:58:53.312Z,15.64
2023-03-10T08:01:21.691Z,16.37
2023-03-10T08:03:49.188Z,16.26
2023-03-10T08:06:17.953Z,16.31
2023-03-10T08:08:44.800Z,16.59
2023-03-10T08:11:11.782Z,16.40
2023-03-10T08:13:39.215Z,16.53
2023-03-10T08:16:06.937Z,16.48
2023-03-10T08:18:33.986Z,16.09
2023-03-10T08:21:04.779Z,15.96
2023-03-10T08:23:31.881Z,16.20
2023-03-10T08:26:09.331Z,16.40
2023-03-10T08:28:39.056Z,16.67
2023-03-10T08:31:12.104Z,16.39
2023-03-10T08:33:39.927Z,16.33
2023-03-10T08:36:22.061Z,16.47
2023-03-10T08:38:50.591Z,17.40
2023-03-10T08:41:26.380Z,17.95
2023-03-10T08:43:54.969Z,17.94
2023-03-10T08:46:24.819Z,18.07
2023-03-10T08:48:52.301Z,17.80
2023-03-10T08:51:19.365Z,17.52
2023-03-10T08:53:48.099Z,17.81
2023-03-10T08:56:16.054Z,17.51
2023-03-10T08:58:42.963Z,17.28
2023-03-10T09:01:10.136Z,17.72
2023-03-10T09:03:39.819Z,17.93
2023-03-10T09:06:07.317Z,17.89
2023-03-10T09:08:34.510Z,18.30
2023-03-10T09:11:01.960Z,18.05
2023-03-10T09:13:28.915Z,17.33
2023-03-10T09:15:56.057Z,17.30
2023-03-10T09:18:23.077Z,17.07
2023-03-10T09:20:50.079Z,17.77
2023-03-10T09:23:17.448Z,17.92
2023-03-10T09:25:44.580Z,17.71
2023-03-10T09:28:12.176Z,17.49
2023-03-10T09:30:41.573Z,17.25
2023-03-10T09:33:15.246Z,17.48
2023-03-10T09:35:52.455Z,17.88
2023-03-10T09:38:25.534Z,17.64
2023-03-10T09:41:03.824Z,17.49
2023-03-10T09:43:40.097Z,18.31
2023-03-10T09:46:38.674Z,19.11
2023-03-10T09:49:19.749Z,18.93
2023-03-10T09:51:48.978Z,18.44
2023-03-10T09:54:34.099Z,18.26
2023-03-10T09:57:01.769Z,18.49
2023-03-10T09:59:38.225Z,18.00
2023-03-10T10:02:24.470Z,18.02
2023-03-10T10:04:54.406Z,17.70
2023-03-10T10:07:25.969Z,18.23
2023-03-10T10:09:58.700Z,18.38
2023-03-10T10:12:26.314Z,19.14
2023-03-10T10:15:02.462Z,18.95
2023-03-10T10:17:35.470Z,18.46
2023-03-10T10:20:10.294Z,18.47
2023-03-10T10:22:38.463Z,18.13
2023-03-10T10:25:08.664Z,18.36
2023-03-10T10:27:36.736Z,18.45
2023-03-10T10:30:27.599Z,18.18
2023-03-10T10:33:14.284Z,17.87
2023-03-10T10:35:59.478Z,18.01
2023-03-10T10:38:29.435Z,18.20
2023-03-10T10:41:07.514Z,18.44
2023-03-10T10:43:43.631Z,18.79
2023-03-10T10:46:12.000Z,19.03
2023-03-10T10:48:47.389Z,19.45
2023-03-10T10:51:29.378Z,20.00
2023-03-10T10:54:01.011Z,19.67
2023-03-10T10:56:28.854Z,18.86
2023-03-10T10:59:17.693Z,18.84
2023-03-10T11:01:56.387Z,19.35
2023-03-10T11:04:25.071Z,20.13
2023-03-10T11:06:52.508Z,20.74
2023-03-10T11:09:21.420Z,20.22
2023-03-10T11:12:02.277Z,19.78
2023-03-10T11:14:35.313Z,20.46
2023-03-10T11:17:20.486Z,20.43
2023-03-10T11:20:09.390Z,19.79
2023-03-10T11:22:45.384Z,19.00
2023-03-10T11:25:29.680Z,19.11
2023-03-10T11:28:02.595Z,19.25
2023-03-10T11:30:33.467Z,18.90
2023-03-10T11:33:03.419Z,18.97
2023-03-10T11:35:43.991Z,19.38
2023-03-10T11:38:20.957Z,19.86
2023-03-10T11:40:54.962Z,19.67
2023-03-10T11:43:30.974Z,19.82
2023-03-10T11:46:13.689Z,19.83
2023-03-10T11:48:59.497Z,20.15
2023-03-10T11:51:41.356Z,20.06
2023-03-10T11:54:19.909Z,19.67
2023-03-10T11:56:47.498Z,20.12
2023-03-10T11:59:27.427Z,20.83
2023-03-10T12:02:25.028Z,20.42
2023-03-10T12:04:59.234Z,20.03
2023-03-10T12:07:32.660Z,20.24
2023-03-10T12:10:01.770Z,19.78
2023-03-10T12:12:40.796Z,19.89
2023-03-10T12:15:27.771Z,20.05
2023-03-10T12:17:55.205Z,19.80
2023-03-10T12:20:22.069Z,19.70
2023-03-10T12:23:13.750Z,19.57
2023-03-10T12:25:44.975Z,19.71
2023-03-10T12:28:17.624Z,19.24
2023-03-10T12:31:09.074Z,19.59
2023-03-10T12:33:35.938Z,19.52
2023-03-10T12:36:04.071Z,19.14
2023-03-10T12:38:49.544Z,19.47
2023-03-10T12:41:28.421Z,19.92
2023-03-10T12:43:58.426Z,19.76
2023-03-10T12:46:41.763Z,19.87
2023-03-10T12:49:20.836Z,20.17
2023-03-10T12:51:52.872Z,20.10
2023-03-10T12:54:31.461Z,20.35
2023-03-10T12:57:23.169Z,19.83
2023-03-10T12:59:59.300Z,19.91
2023-03-10T13:02:33.846Z,19.43
2023-03-10T13:05:07.508Z,19.16
2023-03-10T13:07:35.996Z,19.19
2023-03-10T13:10:03.665Z,18.91
2023-03-10T13:12:35.899Z,18.98
2023-03-10T13:15:08.310Z,19.11
2023-03-10T13:17:35.246Z,19.45
2023-03-10T13:20:36.014Z,19.29
2023-03-10T13:23:02.942Z,19.10
2023-03-10T13:25:29.870Z,18.79
2023-03-10T13:27:57.712Z,18.68
2023-03-10T13:30:29.020Z,18.73
2023-03-10T13:33:01.512Z,19.15
2023-03-10T13:35:32.558Z,19.01
2023-03-10T13:38:22.028Z,18.98
2023-03-10T13:41:00.351Z,18.64
2023-03-10T13:43:35.225Z,18.55
2023-03-10T13:46:03.606Z,18.62
2023-03-10T13:48:32.105Z,18.72
2023-03-10T13:51:07.104Z,18.37
2023-03-10T13:53:34.207Z,18.58
2023-03-10T13:56:09.937Z,18.74
2023-03-10T13:58:36.943Z,18.82
2023-03-10T14:01:05.191Z,18.65
2023-03-10T14:03:32.173Z,18.66
2023-03-10T14:05:59.115Z,18.84
2023-03-10T14:08:31.022Z,18.94
2023-03-10T14:11:22.742Z,19.02
2023-03-10T14:13:49.605Z,18.73
2023-03-10T14:16:16.537Z,18.45
2023-03-10T14:18:44.012Z,18.53
2023-03-10T14:21:31.601Z,18.74
2023-03-10T14:24:13.828Z,19.01
2023-03-10T14:26:41.149Z,19.24
2023-03-10T14:29:26.931Z,19.26
2023-03-10T14:31:53.808Z,18.87
2023-03-10T14:34:20.808Z,18.19
2023-03-10T14:36:47.701Z,17.93
2023-03-10T14:39:14.752Z,17.70
2023-03-10T14:41:41.681Z,17.49
2023-03-10T14:44:09.922Z,17.44
2023-03-10T14:46:36.963Z,17.48
2023-03-10T14:49:06.709Z,17.78
2023-03-10T14:51:36.332Z,18.06
2023-03-10T14:54:04.170Z,17.96
2023-03-10T14:56:32.149Z,17.86
2023-03-10T14:59:13.637Z,17.86
2023-03-10T15:01:40.900Z,17.85
2023-03-10T15:04:15.551Z,17.05
2023-03-10T15:06:43.251Z,16.74
2023-03-10T15:09:10.742Z,16.84
2023-03-10T15:11:38.176Z,16.85
2023-03-10T15:14:16.664Z,16.58
2023-03-10T15:16:43.758Z,16.51
2023-03-10T15:19:27.515Z,16.48
2023-03-10T15:21:55.143Z,16.69
2023-03-10T15:24:22.002Z,16.59
2023-03-10T15:26:48.894Z,16.30
2023-03-10T15:29:20.937Z,16.18
2023-03-10T15:31:47.823Z,15.95
2023-03-10T15:34:14.727Z,15.81
2023-03-10T15:36:41.611Z,15.91
2023-03-10T15:39:32.155Z,15.56
2023-03-10T15:42:00.106Z,14.73
2023-03-10T15:44:26.990Z,14.92
2023-03-10T15:46:55.132Z,14.44
2023-03-10T15:49:55.221Z,14.45
2023-03-10T15:52:23.550Z,14.41
2023-03-10T15:54:50.680Z,14.25
2023-03-10T15:57:17.610Z,14.17
2023-03-10T15:59:44.540Z,14.29
2023-03-10T16:02:12.848Z,14.48
2023-03-10T16:04:39.852Z,14.04
2023-03-10T16:07:07.401Z,14.28
2023-03-10T16:09:34.346Z,14.44
2023-03-10T16:12:02.429Z,14.35
2023-03-10T16:15:02.463Z,14.43
2023-03-10T16:17:29.720Z,14.23
2023-03-10T16:19:56.565Z,14.35
2023-03-10T16:22:23.510Z,14.37
2023-03-10T16:24:50.418Z,14.08
2023-03-10T16:27:17.353Z,14.08
2023-03-10T16:29:44.282Z,14.14
2023-03-10T16:32:12.262Z,14.35
2023-03-10T16:34:39.144Z,13.91
2023-03-10T16:37:08.262Z,14.27
2023-03-10T16:39:35.343Z,13.84
2023-03-10T16:42:03.962Z,14.15
2023-03-10T16:44:30.837Z,14.24
2023-03-10T16:46:57.796Z,13.63
2023-03-10T16:49:24.657Z,14.02
2023-03-10T16:51:51.537Z,14.06
2023-03-10T16:54:20.338Z,14.16
2023-03-10T16:56:50.237Z,14.63
2023-03-10T16:59:19.594Z,14.24
2023-03-10T17:01:47.392Z,14.05
2023-03-10T17:04:15.335Z,13.97
2023-03-10T17:06:42.532Z,14.09
2023-03-10T17:09:11.000Z,14.21
2023-03-10T17:11:44.888Z,13.82
2023-03-10T17:14:14.425Z,13.63
2023-03-10T17:16:42.397Z,13.94
2023-03-10T17:19:15.855Z,14.19
2023-03-10T17:21:46.080Z,13.76
2023-03-10T17:24:14.805Z,13.27
2023-03-10T17:26:42.034Z,13.29
2023-03-10T17:29:09.452Z,12.62
2023-03-10T17:31:37.127Z,12.71
2023-03-10T17:34:07.445Z,12.55
2023-03-10T17:36:34.695Z,12.77
2023-03-10T17:39:03.062Z,12.29
2023-03-10T17:41:31.269Z,12.52
2023-03-10T17:43:58.163Z,12.03
2023-03-10T17:46:27.963Z,11.83
2023-03-10T17:48:55.319Z,11.90
2023-03-10T17:51:26.359Z,11.71
2023-03-10T17:53:54.523Z,11.55
2023-03-10T17:56:22.305Z,11.56
2023-03-10T17:58:49.980Z,11.54
2023-03-10T18:01:20.893Z,11.68
2023-03-10T18:03:48.557Z,11.54
2023-03-10T18:06:27.070Z,12.31
2023-03-10T18:08:56.180Z,12.26
2023-03-10T18:11:24.688Z,12.53
2023-03-10T18:13:51.962Z,12.42
2023-03-10T18:16:24.215Z,12.25
2023-03-10T18:18:51.182Z,12.03
2023-03-10T18:21:19.338Z,11.72
2023-03-10T18:23:47.175Z,12.02
2023-03-10T18:26:17.231Z,11.39
2023-03-10T18:28:44.236Z,11.94
2023-03-10T18:31:17.499Z,11.96
2023-03-10T18:33:44.432Z,12.08
2023-03-10T18:36:13.825Z,12.01
2023-03-10T18:38:41.197Z,12.21
2023-03-10T18:41:08.148Z,11.34
2023-03-10T18:43:35.137Z,10.89
2023-03-10T18:46:02.246Z,11.10
2023-03-10T18:48:29.162Z,11.98
2023-03-10T18:50:57.952Z,11.69
2023-03-10T18:53:25.914Z,12.16
2023-03-10T18:55:55.121Z,12.20
2023-03-10T18:58:22.772Z,12.34
2023-03-10T19:00:50.494Z,12.08
2023-03-10T19:03:18.475Z,12.70
2023-03-10T19:05:45.557Z,12.45
2023-03-10T19:08:12.447Z,12.24
2023-03-10T19:10:40.038Z,12.35
2023-03-10T19:13:07.985Z,12.54
2023-03-10T19:15:37.354Z,12.90
2023-03-10T19:18:04.721Z,12.62
2023-03-10T19:20:31.619Z,12.77
2023-03-10T19:22:58.512Z,12.74
2023-03-10T19:25:25.395Z,13.06
2023-03-10T19:27:52.342Z,13.52
2023-03-10T19:30:20.305Z,12.90
2023-03-10T19:32:47.930Z,12.99
2023-03-10T19:35:15.763Z,13.16
2023-03-10T19:37:46.306Z,13.20
2023-03-10T19:40:17.325Z,12.86
2023-03-10T19:42:45.040Z,12.49
2023-03-10T19:45:13.983Z,12.22
2023-03-10T19:47:41.851Z,12.55
2023-03-10T19:50:10.976Z,12.92
2023-03-10T19:52:39.136Z,12.57
2023-03-10T19:55:09.697Z,12.38
2023-03-10T19:57:37.015Z,12.52
2023-03-10T20:00:07.441Z,12.46
2023-03-10T20:02:34.586Z,12.35
2023-03-10T20:05:01.568Z,12.35
2023-03-10T20:07:28.529Z,12.31
2023-03-10T20:09:55.413Z,11.94
2023-03-10T20:12:22.583Z,12.40
2023-03-10T20:14:49.664Z,12.26
2023-03-10T20:17:18.780Z,12.18
2023-03-10T20:19:46.183Z,11.96
2023-03-10T20:22:15.351Z,12.09
2023-03-10T20:24:42.217Z,11.99
2023-03-10T20:27:09.085Z,11.96
2023-03-10T20:29:38.537Z,11.79
2023-03-10T20:32:05.747Z,11.86
2023-03-10T20:34:32.822Z,11.58
2023-03-10T20:36:59.740Z,11.54
2023-03-10T20:39:26.619Z,11.90
2023-03-10T20:41:53.497Z,11.46
2023-03-10T20:44:22.826Z,11.87
2023-03-10T20:46:49.738Z,11.64
2023-03-10T20:49:16.689Z,11.30
2023-03-10T20:51:43.615Z,11.05
2023-03-10T20:54:10.466Z,11.31
2023-03-10T20:56:37.334Z,11.40
2023-03-10T20:59:04.658Z,10.90
2023-03-10T21:01:31.732Z,10.67
2023-03-10T21:03:58.749Z,11.24
2023-03-10T21:06:27.190Z,10.98
2023-03-10T21:08:54.326Z,11.59
2023-03-10T21:11:21.644Z,11.63
2023-03-10T21:13:48.565Z,12.01
2023-03-10T21:16:15.712Z,12.28
2023-03-10T21:18:42.624Z,12.47
2023-03-10T21:21:10.002Z,12.31
2023-03-10T21:23:37.987Z,12.00
2023-03-10T21:26:19.731Z,11.66
2023-03-10T21:28:47.136Z,11.56
2023-03-10T21:31:14.404Z,11.60
2023-03-10T21:33:44.141Z,10.75
2023-03-10T21:36:22.379Z,10.95
2023-03-10T21:38:50.283Z,11.19
2023-03-10T21:41:21.783Z,11.29
2023-03-10T21:43:48.994Z,11.42
2023-03-10T21:46:18.887Z,11.43
2023-03-10T21:48:45.776Z,11.52
2023-03-10T21:51:16.895Z,11.69
2023-03-10T21:53:43.967Z,11.65
2023-03-10T21:56:13.910Z,11.63
2023-03-10T21:58:40.854Z,11.77
2023-03-10T22:01:12.589Z,11.37
2023-03-10T22:03:40.282Z,11.75
2023-03-10T22:06:07.261Z,11.82
2023-03-10T22:08:35.564Z,11.73
2023-03-10T22:11:02.683Z,11.77
2023-03-10T22:13:29.535Z,11.77
2023-03-10T22:15:56.422Z,11.97
2023-03-10T22:18:23.261Z,11.94
2023-03-10T22:20:50.179Z,11.82
2023-03-10T22:23:17.135Z,11.55
2023-03-10T22:25:44.191Z,11.37
2023-03-10T22:28:11.114Z,11.39
2023-03-10T22:30:39.026Z,11.88
2023-03-10T22:33:09.079Z,11.75
2023-03-10T22:35:37.575Z,11.52
2023-03-10T22:38:05.272Z,11.54
2023-03-10T22:40:32.813Z,11.03
2023-03-10T22:42:59.791Z,11.43
2023-03-10T22:45:32.455Z,11.09
2023-03-10T22:48:01.701Z,10.83
2023-03-10T22:50:35.918Z,10.74
2023-03-10T22:53:05.503Z,10.19
2023-03-10T22:55:35.775Z,10.30
2023-03-10T22:58:07.232Z,10.47
2023-03-10T23:00:34.462Z,10.14
2023-03-10T23:03:01.662Z,10.19
2023-03-10T23:05:29.055Z,10.19
2023-03-10T23:07:56.015Z,10.93
2023-03-10T23:10:30.821Z,10.64
2023-03-10T23:13:02.955Z,10.09
2023-03-10T23:15:33.518Z,9.92
2023-03-10T23:18:00.515Z,9.89
2023-03-10T23:20:30.381Z,9.86
2023-03-10T23:22:59.246Z,9.53
2023-03-10T23:25:32.689Z,10.01
2023-03-10T23:27:59.951Z,9.62
2023-03-10T23:30:27.831Z,9.44
2023-03-10T23:32:55.024Z,9.07
2023-03-10T23:35:25.867Z,8.85
2023-03-10T23:37:52.748Z,8.97
2023-03-10T23:40:21.268Z,9.30
2023-03-10T23:42:48.159Z,9.30
2023-03-10T23:45:18.145Z,9.40
2023-03-10T23:47:45.491Z,9.62
2023-03-10T23:50:49.805Z,9.22
2023-03-10T23:53:20.898Z,9.30
2023-03-10T23:55:49.579Z,9.27
2023-03-10T23:58:24.193Z,9.60
